sensor_id;sensor_type;location;lat;lon;timestamp;pressure;altitude;pressure_sealevel;temperature;humidity
70968;BME280;58629;48.808;8.820;2023-04-28T00:01:14;96943.00;;;9.05;91.04
70968;BME280;58629;48.808;8.820;2023-04-28T00:03:40;96931.66;;;9.08;90.73
70968;BME280;58629;48.808;8.820;2023-04-28T00:06:05;96943.00;;;9.05;90.41
70968;BME280;58629;48.808;8.820;2023-04-28T00:08:30;96940.78;;;9.04;91.11
70968;BME280;58629;48.808;8.820;2023-04-28T00:10:56;96946.41;;;9.06;91.62
70968;BME280;58629;48.808;8.820;2023-04-28T00:13:22;96942.22;;;9.08;91.29
70968;BME280;58629;48.808;8.820;2023-04-28T00:15:49;96941.19;;;9.02;89.39
70968;BME280;58629;48.808;8.820;2023-04-28T00:18:14;96942.66;;;9.03;87.44
70968;BME280;58629;48.808;8.820;2023-04-28T00:20:39;96929.03;;;9.08;87.75
70968;BME280;58629;48.808;8.820;2023-04-28T00:23:04;96938.75;;;9.15;87.03
70968;BME280;58629;48.808;8.820;2023-04-28T00:25:31;96930.75;;;9.18;86.75
70968;BME280;58629;48.808;8.820;2023-04-28T00:27:57;96925.81;;;9.20;87.87
70968;BME280;58629;48.808;8.820;2023-04-28T00:30:22;96917.88;;;9.20;88.76
70968;BME280;58629;48.808;8.820;2023-04-28T00:32:49;96921.28;;;9.21;89.51
70968;BME280;58629;48.808;8.820;2023-04-28T00:35:14;96924.66;;;9.21;89.56
70968;BME280;58629;48.808;8.820;2023-04-28T00:37:40;96919.34;;;9.25;87.36
70968;BME280;58629;48.808;8.820;2023-04-28T00:40:05;96918.88;;;9.30;86.06
70968;BME280;58629;48.808;8.820;2023-04-28T00:42:31;96909.75;;;9.34;85.56
70968;BME280;58629;48.808;8.820;2023-04-28T00:44:56;96907.78;;;9.38;85.72
70968;BME280;58629;48.808;8.820;2023-04-28T00:47:22;96903.22;;;9.39;88.31
70968;BME280;58629;48.808;8.820;2023-04-28T00:49:47;96909.41;;;9.32;89.84
70968;BME280;58629;48.808;8.820;2023-04-28T00:52:14;96901.91;;;9.27;90.64
70968;BME280;58629;48.808;8.820;2023-04-28T00:54:39;96906.16;;;9.21;90.68
70968;BME280;58629;48.808;8.820;2023-04-28T00:57:06;96902.78;;;9.21;90.79
70968;BME280;58629;48.808;8.820;2023-04-28T00:59:32;96897.50;;;9.21;91.61
70968;BME280;58629;48.808;8.820;2023-04-28T01:01:58;96900.53;;;9.19;91.36
70968;BME280;58629;48.808;8.820;2023-04-28T01:04:25;96898.94;;;9.25;92.28
70968;BME280;58629;48.808;8.820;2023-04-28T01:06:51;96892.50;;;9.26;92.26
70968;BME280;58629;48.808;8.820;2023-04-28T01:09:17;96888.00;;;9.23;91.10
70968;BME280;58629;48.808;8.820;2023-04-28T01:11:43;96890.31;;;9.21;91.97
70968;BME280;58629;48.808;8.820;2023-04-28T01:14:08;96883.06;;;9.25;91.54
70968;BME280;58629;48.808;8.820;2023-04-28T01:16:34;96876.25;;;9.28;90.57
70968;BME280;58629;48.808;8.820;2023-04-28T01:19:00;96876.19;;;9.31;91.10
70968;BME280;58629;48.808;8.820;2023-04-28T01:21:32;96870.03;;;9.38;90.57
70968;BME280;58629;48.808;8.820;2023-04-28T01:23:58;96865.44;;;9.42;90.81
70968;BME280;58629;48.808;8.820;2023-04-28T01:26:23;96860.16;;;9.42;91.05
70968;BME280;58629;48.808;8.820;2023-04-28T01:28:49;96868.00;;;9.45;90.19
70968;BME280;58629;48.808;8.820;2023-04-28T01:31:15;96864.56;;;9.48;90.77
70968;BME280;58629;48.808;8.820;2023-04-28T01:33:40;96857.72;;;9.51;90.39
70968;BME280;58629;48.808;8.820;2023-04-28T01:36:06;96862.22;;;9.54;89.13
70968;BME280;58629;48.808;8.820;2023-04-28T01:38:31;96860.66;;;9.56;87.32
70968;BME280;58629;48.808;8.820;2023-04-28T01:40:56;96860.19;;;9.61;86.97
70968;BME280;58629;48.808;8.820;2023-04-28T01:43:22;96851.84;;;9.63;86.27
70968;BME280;58629;48.808;8.820;2023-04-28T01:45:48;96849.13;;;9.67;86.06
70968;BME280;58629;48.808;8.820;2023-04-28T01:48:13;96850.22;;;9.69;85.73
70968;BME280;58629;48.808;8.820;2023-04-28T01:50:38;96850.56;;;9.71;85.20
70968;BME280;58629;48.808;8.820;2023-04-28T01:53:03;96851.97;;;9.76;85.14
70968;BME280;58629;48.808;8.820;2023-04-28T01:55:29;96844.38;;;9.78;84.39
70968;BME280;58629;48.808;8.820;2023-04-28T01:57:54;96834.91;;;9.80;85.06
70968;BME280;58629;48.808;8.820;2023-04-28T02:00:22;96830.28;;;9.84;84.29
70968;BME280;58629;48.808;8.820;2023-04-28T02:02:47;96824.19;;;9.87;83.56
70968;BME280;58629;48.808;8.820;2023-04-28T02:05:12;96821.13;;;9.89;83.46
70968;BME280;58629;48.808;8.820;2023-04-28T02:07:38;96830.13;;;9.91;83.34
70968;BME280;58629;48.808;8.820;2023-04-28T02:10:03;96835.34;;;9.95;82.84
70968;BME280;58629;48.808;8.820;2023-04-28T02:12:28;96833.03;;;9.97;82.44
70968;BME280;58629;48.808;8.820;2023-04-28T02:14:54;96834.47;;;10.01;81.74
70968;BME280;58629;48.808;8.820;2023-04-28T02:17:19;96841.19;;;10.06;82.42
70968;BME280;58629;48.808;8.820;2023-04-28T02:19:44;96833.53;;;10.11;81.80
70968;BME280;58629;48.808;8.820;2023-04-28T02:22:10;96831.56;;;10.15;82.09
70968;BME280;58629;48.808;8.820;2023-04-28T02:24:35;96831.50;;;10.19;81.77
70968;BME280;58629;48.808;8.820;2023-04-28T02:27:03;96821.66;;;10.19;82.15
70968;BME280;58629;48.808;8.820;2023-04-28T02:29:28;96828.75;;;10.22;81.98
70968;BME280;58629;48.808;8.820;2023-04-28T02:31:54;96826.13;;;10.22;82.49
70968;BME280;58629;48.808;8.820;2023-04-28T02:34:19;96826.94;;;10.19;84.19
70968;BME280;58629;48.808;8.820;2023-04-28T02:36:45;96831.06;;;10.20;84.81
70968;BME280;58629;48.808;8.820;2023-04-28T02:39:12;96834.47;;;10.21;83.45
70968;BME280;58629;48.808;8.820;2023-04-28T02:41:37;96843.91;;;10.22;83.77
70968;BME280;58629;48.808;8.820;2023-04-28T02:44:02;96849.13;;;10.25;82.47
70968;BME280;58629;48.808;8.820;2023-04-28T02:46:28;96853.00;;;10.21;86.42
70968;BME280;58629;48.808;8.820;2023-04-28T02:48:53;96845.81;;;10.21;82.79
70968;BME280;58629;48.808;8.820;2023-04-28T02:51:18;96830.59;;;10.25;83.91
70968;BME280;58629;48.808;8.820;2023-04-28T02:53:44;96832.41;;;10.28;83.27
70968;BME280;58629;48.808;8.820;2023-04-28T02:56:09;96835.41;;;10.30;83.65
70968;BME280;58629;48.808;8.820;2023-04-28T02:58:35;96846.41;;;10.29;84.81
70968;BME280;58629;48.808;8.820;2023-04-28T03:01:00;96838.03;;;10.30;83.95
70968;BME280;58629;48.808;8.820;2023-04-28T03:03:25;96831.59;;;10.31;83.22
70968;BME280;58629;48.808;8.820;2023-04-28T03:05:50;96836.16;;;10.31;83.62
70968;BME280;58629;48.808;8.820;2023-04-28T03:08:16;96825.16;;;10.32;82.43
70968;BME280;58629;48.808;8.820;2023-04-28T03:10:41;96826.56;;;10.37;83.08
70968;BME280;58629;48.808;8.820;2023-04-28T03:13:06;96822.75;;;10.38;85.06
70968;BME280;58629;48.808;8.820;2023-04-28T03:15:32;96823.16;;;10.36;86.13
70968;BME280;58629;48.808;8.820;2023-04-28T03:17:57;96812.00;;;10.29;87.21
70968;BME280;58629;48.808;8.820;2023-04-28T03:20:23;96818.50;;;10.24;87.76
70968;BME280;58629;48.808;8.820;2023-04-28T03:22:48;96809.91;;;10.20;87.12
70968;BME280;58629;48.808;8.820;2023-04-28T03:25:13;96810.75;;;10.17;87.34
70968;BME280;58629;48.808;8.820;2023-04-28T03:27:38;96809.38;;;10.09;87.23
70968;BME280;58629;48.808;8.820;2023-04-28T03:30:04;96807.84;;;10.12;87.59
70968;BME280;58629;48.808;8.820;2023-04-28T03:32:30;96809.44;;;10.06;86.99
70968;BME280;58629;48.808;8.820;2023-04-28T03:34:55;96809.72;;;10.11;85.51
70968;BME280;58629;48.808;8.820;2023-04-28T03:37:21;96805.88;;;10.16;86.26
70968;BME280;58629;48.808;8.820;2023-04-28T03:39:46;96799.41;;;10.17;86.29
70968;BME280;58629;48.808;8.820;2023-04-28T03:42:11;96792.56;;;10.19;86.46
70968;BME280;58629;48.808;8.820;2023-04-28T03:44:37;96789.50;;;10.21;85.87
70968;BME280;58629;48.808;8.820;2023-04-28T03:47:02;96783.72;;;10.26;85.36
70968;BME280;58629;48.808;8.820;2023-04-28T03:49:27;96786.75;;;10.24;85.77
70968;BME280;58629;48.808;8.820;2023-04-28T03:51:53;96790.81;;;10.29;84.46
70968;BME280;58629;48.808;8.820;2023-04-28T03:54:18;96778.09;;;10.24;85.26
70968;BME280;58629;48.808;8.820;2023-04-28T03:56:43;96777.59;;;10.29;84.06
70968;BME280;58629;48.808;8.820;2023-04-28T03:59:09;96777.50;;;10.32;84.61
70968;BME280;58629;48.808;8.820;2023-04-28T04:01:36;96781.31;;;10.31;84.38
70968;BME280;58629;48.808;8.820;2023-04-28T04:04:02;96780.81;;;10.36;82.91
70968;BME280;58629;48.808;8.820;2023-04-28T04:06:27;96773.53;;;10.40;83.15
70968;BME280;58629;48.808;8.820;2023-04-28T04:08:52;96772.31;;;10.45;81.96
70968;BME280;58629;48.808;8.820;2023-04-28T04:11:18;96769.56;;;10.48;82.02
70968;BME280;58629;48.808;8.820;2023-04-28T04:13:43;96769.50;;;10.52;81.81
70968;BME280;58629;48.808;8.820;2023-04-28T04:16:08;96773.97;;;10.55;83.22
70968;BME280;58629;48.808;8.820;2023-04-28T04:18:34;96769.75;;;10.58;82.33
70968;BME280;58629;48.808;8.820;2023-04-28T04:20:59;96762.88;;;10.60;82.59
70968;BME280;58629;48.808;8.820;2023-04-28T04:23:24;96755.25;;;10.62;82.57
70968;BME280;58629;48.808;8.820;2023-04-28T04:25:50;96766.09;;;10.68;81.51
70968;BME280;58629;48.808;8.820;2023-04-28T04:28:15;96762.53;;;10.74;82.57
70968;BME280;58629;48.808;8.820;2023-04-28T04:30:41;96756.25;;;10.68;84.04
70968;BME280;58629;48.808;8.820;2023-04-28T04:33:06;96763.88;;;10.66;83.85
70968;BME280;58629;48.808;8.820;2023-04-28T04:35:31;96759.00;;;10.65;83.78
70968;BME280;58629;48.808;8.820;2023-04-28T04:37:57;96758.16;;;10.68;83.41
70968;BME280;58629;48.808;8.820;2023-04-28T04:40:22;96749.06;;;10.69;84.90
70968;BME280;58629;48.808;8.820;2023-04-28T04:42:48;96747.88;;;10.70;86.43
70968;BME280;58629;48.808;8.820;2023-04-28T04:45:13;96741.13;;;10.69;86.86
70968;BME280;58629;48.808;8.820;2023-04-28T04:47:39;96759.66;;;10.69;86.29
70968;BME280;58629;48.808;8.820;2023-04-28T04:50:05;96763.44;;;10.68;86.67
70968;BME280;58629;48.808;8.820;2023-04-28T04:52:31;96764.94;;;10.69;87.93
70968;BME280;58629;48.808;8.820;2023-04-28T04:54:56;96759.66;;;10.69;88.02
70968;BME280;58629;48.808;8.820;2023-04-28T04:57:21;96760.78;;;10.68;88.30
70968;BME280;58629;48.808;8.820;2023-04-28T04:59:47;96769.06;;;10.70;88.22
70968;BME280;58629;48.808;8.820;2023-04-28T05:02:12;96755.84;;;10.70;89.93
70968;BME280;58629;48.808;8.820;2023-04-28T05:04:37;96757.75;;;10.69;90.13
70968;BME280;58629;48.808;8.820;2023-04-28T05:07:03;96754.34;;;10.69;88.92
70968;BME280;58629;48.808;8.820;2023-04-28T05:09:28;96763.38;;;10.71;88.96
70968;BME280;58629;48.808;8.820;2023-04-28T05:11:54;96763.72;;;10.73;88.31
70968;BME280;58629;48.808;8.820;2023-04-28T05:14:20;96768.16;;;10.76;88.57
70968;BME280;58629;48.808;8.820;2023-04-28T05:16:45;96768.50;;;10.78;89.21
70968;BME280;58629;48.808;8.820;2023-04-28T05:19:10;96769.25;;;10.79;88.46
70968;BME280;58629;48.808;8.820;2023-04-28T05:21:36;96765.75;;;10.82;88.45
70968;BME280;58629;48.808;8.820;2023-04-28T05:24:01;96772.88;;;10.85;88.07
70968;BME280;58629;48.808;8.820;2023-04-28T05:26:26;96769.81;;;10.86;90.16
70968;BME280;58629;48.808;8.820;2023-04-28T05:28:51;96768.66;;;10.87;89.10
70968;BME280;58629;48.808;8.820;2023-04-28T05:31:17;96769.72;;;10.90;89.05
70968;BME280;58629;48.808;8.820;2023-04-28T05:33:42;96769.31;;;10.91;87.65
70968;BME280;58629;48.808;8.820;2023-04-28T05:36:08;96765.06;;;10.94;88.48
70968;BME280;58629;48.808;8.820;2023-04-28T05:38:34;96757.03;;;10.97;89.29
70968;BME280;58629;48.808;8.820;2023-04-28T05:41:00;96758.97;;;10.97;87.98
70968;BME280;58629;48.808;8.820;2023-04-28T05:43:26;96761.19;;;10.98;88.53
70968;BME280;58629;48.808;8.820;2023-04-28T05:45:51;96762.25;;;11.01;88.61
70968;BME280;58629;48.808;8.820;2023-04-28T05:48:17;96763.31;;;11.03;88.63
70968;BME280;58629;48.808;8.820;2023-04-28T05:50:42;96760.28;;;11.05;89.50
70968;BME280;58629;48.808;8.820;2023-04-28T05:53:07;96757.94;;;11.07;90.68
70968;BME280;58629;48.808;8.820;2023-04-28T05:55:33;96756.28;;;11.13;90.57
70968;BME280;58629;48.808;8.820;2023-04-28T05:58:00;96752.34;;;11.17;90.27
70968;BME280;58629;48.808;8.820;2023-04-28T06:00:26;96757.50;;;11.24;90.59
70968;BME280;58629;48.808;8.820;2023-04-28T06:02:51;96755.16;;;11.26;91.16
70968;BME280;58629;48.808;8.820;2023-04-28T06:05:16;96751.97;;;11.31;91.58
70968;BME280;58629;48.808;8.820;2023-04-28T06:07:42;96758.78;;;11.32;91.73
70968;BME280;58629;48.808;8.820;2023-04-28T06:10:08;96761.75;;;11.34;92.34
70968;BME280;58629;48.808;8.820;2023-04-28T06:12:33;96756.03;;;11.36;92.89
70968;BME280;58629;48.808;8.820;2023-04-28T06:14:58;96750.22;;;11.41;93.09
70968;BME280;58629;48.808;8.820;2023-04-28T06:17:23;96744.72;;;11.48;92.56
70968;BME280;58629;48.808;8.820;2023-04-28T06:19:49;96752.16;;;11.53;92.28
70968;BME280;58629;48.808;8.820;2023-04-28T06:22:17;96753.56;;;11.58;92.95
70968;BME280;58629;48.808;8.820;2023-04-28T06:24:42;96745.50;;;11.61;91.77
70968;BME280;58629;48.808;8.820;2023-04-28T06:27:08;96742.41;;;11.63;92.49
70968;BME280;58629;48.808;8.820;2023-04-28T06:29:33;96747.31;;;11.64;92.32
70968;BME280;58629;48.808;8.820;2023-04-28T06:31:58;96755.28;;;11.64;92.77
70968;BME280;58629;48.808;8.820;2023-04-28T06:34:27;96749.56;;;11.66;92.75
70968;BME280;58629;48.808;8.820;2023-04-28T06:36:53;96737.38;;;11.68;92.86
70968;BME280;58629;48.808;8.820;2023-04-28T06:39:20;96738.84;;;11.69;93.33
70968;BME280;58629;48.808;8.820;2023-04-28T06:41:45;96732.06;;;11.68;93.97
70968;BME280;58629;48.808;8.820;2023-04-28T06:44:11;96738.75;;;11.73;93.42
70968;BME280;58629;48.808;8.820;2023-04-28T06:46:37;96732.63;;;11.76;93.52
70968;BME280;58629;48.808;8.820;2023-04-28T06:49:02;96734.09;;;11.77;93.10
70968;BME280;58629;48.808;8.820;2023-04-28T06:51:28;96730.28;;;11.78;93.37
70968;BME280;58629;48.808;8.820;2023-04-28T06:53:54;96730.91;;;11.82;93.80
70968;BME280;58629;48.808;8.820;2023-04-28T06:56:19;96732.00;;;11.84;94.13
70968;BME280;58629;48.808;8.820;2023-04-28T06:58:44;96734.22;;;11.86;94.82
70968;BME280;58629;48.808;8.820;2023-04-28T07:01:10;96718.19;;;11.89;94.46
70968;BME280;58629;48.808;8.820;2023-04-28T07:03:35;96718.41;;;11.95;94.94
70968;BME280;58629;48.808;8.820;2023-04-28T07:06:00;96721.69;;;11.99;94.89
70968;BME280;58629;48.808;8.820;2023-04-28T07:08:27;96722.31;;;12.03;95.23
70968;BME280;58629;48.808;8.820;2023-04-28T07:10:54;96724.78;;;12.10;95.87
70968;BME280;58629;48.808;8.820;2023-04-28T07:13:20;96722.84;;;12.10;96.54
70968;BME280;58629;48.808;8.820;2023-04-28T07:15:45;96721.59;;;12.15;96.13
70968;BME280;58629;48.808;8.820;2023-04-28T07:18:10;96719.34;;;12.13;96.92
70968;BME280;58629;48.808;8.820;2023-04-28T07:20:36;96719.03;;;12.11;97.23
70968;BME280;58629;48.808;8.820;2023-04-28T07:23:01;96723.59;;;12.11;97.63
70968;BME280;58629;48.808;8.820;2023-04-28T07:25:26;96719.34;;;12.13;98.19
70968;BME280;58629;48.808;8.820;2023-04-28T07:27:52;96724.88;;;12.19;98.58
70968;BME280;58629;48.808;8.820;2023-04-28T07:30:18;96713.19;;;12.29;98.50
70968;BME280;58629;48.808;8.820;2023-04-28T07:32:43;96715.31;;;12.22;100.00
70968;BME280;58629;48.808;8.820;2023-04-28T07:35:08;96719.78;;;12.12;100.00
70968;BME280;58629;48.808;8.820;2023-04-28T07:37:34;96719.44;;;12.23;100.00
70968;BME280;58629;48.808;8.820;2023-04-28T07:39:59;96716.81;;;12.10;100.00
70968;BME280;58629;48.808;8.820;2023-04-28T07:42:25;96731.34;;;12.05;100.00
70968;BME280;58629;48.808;8.820;2023-04-28T07:44:51;96732.50;;;12.04;100.00
70968;BME280;58629;48.808;8.820;2023-04-28T07:47:16;96726.16;;;12.02;100.00
70968;BME280;58629;48.808;8.820;2023-04-28T07:49:42;96732.41;;;11.95;100.00
70968;BME280;58629;48.808;8.820;2023-04-28T07:52:07;96738.56;;;11.92;100.00
70968;BME280;58629;48.808;8.820;2023-04-28T07:54:33;96736.22;;;11.94;100.00
70968;BME280;58629;48.808;8.820;2023-04-28T07:56:59;96740.81;;;11.94;100.00
70968;BME280;58629;48.808;8.820;2023-04-28T07:59:25;96747.28;;;12.05;100.00
70968;BME280;58629;48.808;8.820;2023-04-28T08:01:50;96745.78;;;12.04;100.00
70968;BME280;58629;48.808;8.820;2023-04-28T08:04:16;96747.91;;;12.09;100.00
70968;BME280;58629;48.808;8.820;2023-04-28T08:06:41;96743.44;;;12.06;100.00
70968;BME280;58629;48.808;8.820;2023-04-28T08:09:07;96748.66;;;11.97;100.00
70968;BME280;58629;48.808;8.820;2023-04-28T08:11:33;96751.63;;;11.99;100.00
70968;BME280;58629;48.808;8.820;2023-04-28T08:13:59;96753.97;;;11.97;100.00
70968;BME280;58629;48.808;8.820;2023-04-28T08:16:27;96758.72;;;12.02;100.00
70968;BME280;58629;48.808;8.820;2023-04-28T08:18:53;96757.91;;;12.05;100.00
70968;BME280;58629;48.808;8.820;2023-04-28T08:21:18;96766.06;;;12.11;100.00
70968;BME280;58629;48.808;8.820;2023-04-28T08:23:44;96759.50;;;12.15;100.00
70968;BME280;58629;48.808;8.820;2023-04-28T08:26:10;96772.13;;;12.11;100.00
70968;BME280;58629;48.808;8.820;2023-04-28T08:28:35;96775.63;;;12.08;100.00
70968;BME280;58629;48.808;8.820;2023-04-28T08:31:01;96785.19;;;12.06;100.00
70968;BME280;58629;48.808;8.820;2023-04-28T08:33:26;96788.47;;;12.10;100.00
70968;BME280;58629;48.808;8.820;2023-04-28T08:35:52;96779.13;;;12.05;100.00
70968;BME280;58629;48.808;8.820;2023-04-28T08:38:17;96774.56;;;12.18;100.00
70968;BME280;58629;48.808;8.820;2023-04-28T08:40:43;96783.28;;;12.32;100.00
70968;BME280;58629;48.808;8.820;2023-04-28T08:43:08;96795.81;;;12.31;100.00
70968;BME280;58629;48.808;8.820;2023-04-28T08:45:42;96790.50;;;12.31;100.00
70968;BME280;58629;48.808;8.820;2023-04-28T08:48:18;96794.00;;;12.28;100.00
70968;BME280;58629;48.808;8.820;2023-04-28T08:50:49;96788.69;;;12.28;100.00
70968;BME280;58629;48.808;8.820;2023-04-28T08:53:24;96792.41;;;12.31;100.00
70968;BME280;58629;48.808;8.820;2023-04-28T08:55:51;96794.88;;;12.38;100.00
70968;BME280;58629;48.808;8.820;2023-04-28T08:58:18;96809.81;;;12.44;100.00
70968;BME280;58629;48.808;8.820;2023-04-28T09:00:44;96809.94;;;12.41;100.00
70968;BME280;58629;48.808;8.820;2023-04-28T09:03:10;96808.66;;;12.45;100.00
70968;BME280;58629;48.808;8.820;2023-04-28T09:05:36;96810.69;;;12.54;100.00
70968;BME280;58629;48.808;8.820;2023-04-28T09:08:01;96809.72;;;12.60;100.00
70968;BME280;58629;48.808;8.820;2023-04-28T09:10:27;96812.69;;;12.62;100.00
70968;BME280;58629;48.808;8.820;2023-04-28T09:12:54;96816.50;;;12.74;100.00
70968;BME280;58629;48.808;8.820;2023-04-28T09:15:25;96803.94;;;12.87;100.00
70968;BME280;58629;48.808;8.820;2023-04-28T09:17:51;96806.47;;;13.03;100.00
70968;BME280;58629;48.808;8.820;2023-04-28T09:22:47;96808.34;;;13.49;100.00
70968;BME280;58629;48.808;8.820;2023-04-28T09:25:13;96800.25;;;13.74;100.00
70968;BME280;58629;48.808;8.820;2023-04-28T09:27:38;96803.28;;;13.85;100.00
70968;BME280;58629;48.808;8.820;2023-04-28T09:30:04;96809.50;;;13.91;100.00
70968;BME280;58629;48.808;8.820;2023-04-28T09:32:30;96804.91;;;14.14;100.00
70968;BME280;58629;48.808;8.820;2023-04-28T09:34:55;96807.16;;;14.24;100.00
70968;BME280;58629;48.808;8.820;2023-04-28T09:37:23;96798.97;;;14.40;100.00
70968;BME280;58629;48.808;8.820;2023-04-28T09:39:53;96798.66;;;14.38;100.00
70968;BME280;58629;48.808;8.820;2023-04-28T09:45:01;96795.47;;;14.52;100.00
70968;BME280;58629;48.808;8.820;2023-04-28T09:47:28;96790.41;;;14.45;100.00
70968;BME280;58629;48.808;8.820;2023-04-28T09:49:54;96788.81;;;14.57;100.00
70968;BME280;58629;48.808;8.820;2023-04-28T09:52:21;96793.34;;;14.87;100.00
70968;BME280;58629;48.808;8.820;2023-04-28T09:54:49;96803.59;;;15.07;100.00
70968;BME280;58629;48.808;8.820;2023-04-28T09:57:16;96794.91;;;15.42;100.00
70968;BME280;58629;48.808;8.820;2023-04-28T09:59:52;96799.63;;;15.56;100.00
70968;BME280;58629;48.808;8.820;2023-04-28T10:02:19;96798.72;;;15.59;100.00
70968;BME280;58629;48.808;8.820;2023-04-28T10:04:46;96802.13;;;15.33;99.68
70968;BME280;58629;48.808;8.820;2023-04-28T10:07:13;96798.88;;;15.29;99.62
70968;BME280;58629;48.808;8.820;2023-04-28T10:09:40;96804.34;;;15.25;98.53
70968;BME280;58629;48.808;8.820;2023-04-28T10:12:09;96808.47;;;15.17;98.83
70968;BME280;58629;48.808;8.820;2023-04-28T10:14:35;96814.84;;;15.11;97.97
70968;BME280;58629;48.808;8.820;2023-04-28T10:17:02;96801.53;;;15.11;99.65
70968;BME280;58629;48.808;8.820;2023-04-28T10:19:29;96808.66;;;15.23;98.52
70968;BME280;58629;48.808;8.820;2023-04-28T10:27:45;96804.50;;;15.49;95.89
70968;BME280;58629;48.808;8.820;2023-04-28T10:30:13;96804.06;;;15.69;97.92
70968;BME280;58629;48.808;8.820;2023-04-28T10:32:40;96796.63;;;15.82;96.06
70968;BME280;58629;48.808;8.820;2023-04-28T10:40:44;96809.53;;;15.74;96.29
70968;BME280;58629;48.808;8.820;2023-04-28T10:43:31;96804.03;;;15.87;93.79
70968;BME280;58629;48.808;8.820;2023-04-28T10:56:13;96808.22;;;16.29;90.98
70968;BME280;58629;48.808;8.820;2023-04-28T10:58:41;96808.81;;;16.24;89.27
70968;BME280;58629;48.808;8.820;2023-04-28T11:06:21;96806.97;;;16.48;89.87
70968;BME280;58629;48.808;8.820;2023-04-28T11:08:50;96803.72;;;16.54;87.45
70968;BME280;58629;48.808;8.820;2023-04-28T11:11:17;96807.09;;;16.54;87.31
70968;BME280;58629;48.808;8.820;2023-04-28T11:13:43;96807.53;;;16.62;88.93
70968;BME280;58629;48.808;8.820;2023-04-28T11:16:13;96803.34;;;16.70;89.69
70968;BME280;58629;48.808;8.820;2023-04-28T11:18:52;96795.16;;;16.64;87.05
70968;BME280;58629;48.808;8.820;2023-04-28T11:21:19;96800.44;;;16.40;86.65
70968;BME280;58629;48.808;8.820;2023-04-28T11:23:45;96804.16;;;16.43;87.77
70968;BME280;58629;48.808;8.820;2023-04-28T11:26:10;96795.91;;;16.32;84.99
70968;BME280;58629;48.808;8.820;2023-04-28T11:28:45;96799.09;;;16.03;85.50
70968;BME280;58629;48.808;8.820;2023-04-28T11:31:12;96801.44;;;16.10;88.56
70968;BME280;58629;48.808;8.820;2023-04-28T11:33:38;96811.28;;;16.04;87.13
70968;BME280;58629;48.808;8.820;2023-04-28T11:36:04;96801.72;;;16.21;87.58
70968;BME280;58629;48.808;8.820;2023-04-28T11:38:42;96800.81;;;16.24;86.87
70968;BME280;58629;48.808;8.820;2023-04-28T11:41:07;96807.66;;;16.16;88.00
70968;BME280;58629;48.808;8.820;2023-04-28T11:43:33;96795.22;;;16.13;89.26
70968;BME280;58629;48.808;8.820;2023-04-28T11:45:58;96803.66;;;16.21;88.45
70968;BME280;58629;48.808;8.820;2023-04-28T11:48:23;96803.81;;;16.17;86.69
70968;BME280;58629;48.808;8.820;2023-04-28T11:50:48;96802.72;;;16.33;86.95
70968;BME280;58629;48.808;8.820;2023-04-28T11:53:14;96796.38;;;16.63;85.53
70968;BME280;58629;48.808;8.820;2023-04-28T11:55:39;96792.88;;;16.81;82.51
70968;BME280;58629;48.808;8.820;2023-04-28T11:58:20;96790.00;;;17.08;79.54
70968;BME280;58629;48.808;8.820;2023-04-28T12:01:11;96781.00;;;17.20;80.88
70968;BME280;58629;48.808;8.820;2023-04-28T12:03:46;96777.25;;;17.26;80.35
70968;BME280;58629;48.808;8.820;2023-04-28T12:06:18;96784.34;;;17.29;81.35
70968;BME280;58629;48.808;8.820;2023-04-28T12:08:43;96772.56;;;17.36;79.63
70968;BME280;58629;48.808;8.820;2023-04-28T12:11:13;96767.38;;;17.32;79.37
70968;BME280;58629;48.808;8.820;2023-04-28T12:13:39;96776.88;;;17.33;81.99
70968;BME280;58629;48.808;8.820;2023-04-28T12:16:05;96787.09;;;17.20;78.52
70968;BME280;58629;48.808;8.820;2023-04-28T12:18:32;96771.56;;;17.10;79.37
70968;BME280;58629;48.808;8.820;2023-04-28T12:20:57;96787.97;;;17.03;79.71
70968;BME280;58629;48.808;8.820;2023-04-28T12:23:32;96787.13;;;16.97;78.87
70968;BME280;58629;48.808;8.820;2023-04-28T12:25:58;96790.19;;;17.04;80.03
70968;BME280;58629;48.808;8.820;2023-04-28T12:28:37;96791.03;;;17.10;77.42
70968;BME280;58629;48.808;8.820;2023-04-28T12:31:05;96790.56;;;17.12;76.73
70968;BME280;58629;48.808;8.820;2023-04-28T12:33:31;96781.81;;;17.11;79.02
70968;BME280;58629;48.808;8.820;2023-04-28T12:36:01;96781.69;;;17.06;78.08
70968;BME280;58629;48.808;8.820;2023-04-28T12:38:27;96788.88;;;17.00;79.79
70968;BME280;58629;48.808;8.820;2023-04-28T12:40:53;96783.59;;;16.91;80.22
70968;BME280;58629;48.808;8.820;2023-04-28T12:43:19;96782.00;;;16.84;78.87
70968;BME280;58629;48.808;8.820;2023-04-28T12:45:47;96788.19;;;16.90;78.45
70968;BME280;58629;48.808;8.820;2023-04-28T12:48:13;96776.00;;;17.13;79.27
70968;BME280;58629;48.808;8.820;2023-04-28T12:50:38;96768.13;;;17.33;76.73
70968;BME280;58629;48.808;8.820;2023-04-28T12:53:03;96768.66;;;17.61;76.94
70968;BME280;58629;48.808;8.820;2023-04-28T12:55:29;96755.81;;;17.65;73.16
70968;BME280;58629;48.808;8.820;2023-04-28T12:57:54;96746.03;;;17.76;77.05
70968;BME280;58629;48.808;8.820;2023-04-28T13:00:20;96738.25;;;17.93;78.29
70968;BME280;58629;48.808;8.820;2023-04-28T13:02:48;96735.00;;;18.03;76.90
70968;BME280;58629;48.808;8.820;2023-04-28T13:05:13;96758.28;;;18.12;77.43
70968;BME280;58629;48.808;8.820;2023-04-28T13:07:38;96761.13;;;18.23;73.55
70968;BME280;58629;48.808;8.820;2023-04-28T13:10:04;96766.22;;;18.21;75.88
70968;BME280;58629;48.808;8.820;2023-04-28T13:12:30;96758.75;;;18.10;72.30
70968;BME280;58629;48.808;8.820;2023-04-28T13:14:55;96767.03;;;18.27;72.56
70968;BME280;58629;48.808;8.820;2023-04-28T13:17:20;96759.97;;;18.09;71.92
70968;BME280;58629;48.808;8.820;2023-04-28T13:19:46;96757.84;;;17.99;72.87
70968;BME280;58629;48.808;8.820;2023-04-28T13:22:12;96748.34;;;17.98;71.93
70968;BME280;58629;48.808;8.820;2023-04-28T13:24:37;96754.44;;;17.84;73.47
70968;BME280;58629;48.808;8.820;2023-04-28T13:27:02;96755.53;;;17.77;74.37